Time;durP1;ratioP1;P1;durP2;ratioP2;P2;SDS_P1;SDS_P2;PMS_P1;PMS_P2;Temp;Humidity;BMP_temperature;BMP_pressure;BME280_temperature;BME280_humidity;BME280_pressure;Samples;Min_cycle;Max_cycle;Signal;HPM_P1;HPM_P2
2022/06/30 00:02:24;;;;;;;1.70;1.58;;;;;;;;;;4996671;28;94567;-61
2022/06/30 00:04:51;;;;;;;1.58;1.48;;;;;;;;;;4987662;28;96773;-62
2022/06/30 00:07:17;;;;;;;1.63;1.50;;;;;;;;;;4993043;28;95636;-62
2022/06/30 00:09:43;;;;;;;1.63;1.52;;;;;;;;;;4996320;28;93954;-61
2022/06/30 00:12:10;;;;;;;2.17;1.80;;;;;;;;;;5011828;28;92492;-61
2022/06/30 00:14:36;;;;;;;1.60;1.50;;;;;;;;;;4998891;28;93462;-61
2022/06/30 00:17:03;;;;;;;2.25;1.48;;;;;;;;;;4996828;28;92597;-63
2022/06/30 00:19:30;;;;;;;1.55;1.45;;;;;;;;;;4996223;28;93196;-61
2022/06/30 00:21:56;;;;;;;1.50;1.40;;;;;;;;;;4995497;28;92830;-62
2022/06/30 00:24:22;;;;;;;2.80;1.60;;;;;;;;;;4996233;28;92437;-61
2022/06/30 00:26:49;;;;;;;1.58;1.40;;;;;;;;;;4996554;28;94171;-61
2022/06/30 00:29:15;;;;;;;1.80;1.70;;;;;;;;;;4994813;28;96328;-62
2022/06/30 00:31:42;;;;;;;1.92;1.65;;;;;;;;;;4996369;28;92472;-61
2022/06/30 00:34:08;;;;;;;2.08;1.63;;;;;;;;;;4999100;28;93157;-61
2022/06/30 00:36:34;;;;;;;1.48;1.40;;;;;;;;;;4995912;28;92385;-62
2022/06/30 00:39:01;;;;;;;2.80;1.65;;;;;;;;;;4996318;28;93494;-62
2022/06/30 00:41:27;;;;;;;1.70;1.60;;;;;;;;;;4995150;28;93266;-62
2022/06/30 00:43:53;;;;;;;1.70;1.50;;;;;;;;;;4994532;28;92596;-61
2022/06/30 00:46:20;;;;;;;2.03;1.75;;;;;;;;;;4996324;28;92256;-61
2022/06/30 00:48:46;;;;;;;1.92;1.70;;;;;;;;;;4995595;28;93214;-62
2022/06/30 00:51:12;;;;;;;1.70;1.60;;;;;;;;;;4995921;28;92863;-62
2022/06/30 00:53:40;;;;;;;1.65;1.50;;;;;;;;;;4994517;28;94763;-61
2022/06/30 00:56:08;;;;;;;1.90;1.80;;;;;;;;;;4998633;28;93361;-61
2022/06/30 00:58:37;;;;;;;3.28;1.55;;;;;;;;;;4995737;28;92738;-62
2022/06/30 01:01:06;;;;;;;1.65;1.55;;;;;;;;;;4995671;28;93763;-62
2022/06/30 01:03:33;;;;;;;1.70;1.40;;;;;;;;;;4996247;28;92499;-61
2022/06/30 01:06:00;;;;;;;1.60;1.50;;;;;;;;;;4996011;28;94280;-61
2022/06/30 01:08:28;;;;;;;1.63;1.52;;;;;;;;;;4995498;28;93303;-61
2022/06/30 01:13:39;;;;;;;1.80;1.55;;;;;;;;;;4995634;28;92704;-61
2022/06/30 01:16:06;;;;;;;1.90;1.70;;;;;;;;;;4995327;28;93127;-61
2022/06/30 01:18:33;;;;;;;4.07;1.40;;;;;;;;;;4997144;28;94829;-62
2022/06/30 01:21:00;;;;;;;2.50;1.50;;;;;;;;;;4995116;28;93465;-61
2022/06/30 01:23:26;;;;;;;3.50;1.98;;;;;;;;;;4995479;28;92378;-62
2022/06/30 01:25:53;;;;;;;1.83;1.70;;;;;;;;;;4995143;28;93266;-62
2022/06/30 01:28:20;;;;;;;2.13;1.65;;;;;;;;;;4995155;28;93290;-62
2022/06/30 01:30:46;;;;;;;5.10;2.03;;;;;;;;;;4995288;28;93087;-61
2022/06/30 01:33:13;;;;;;;2.10;1.70;;;;;;;;;;4994062;28;93289;-62
2022/06/30 01:35:39;;;;;;;1.83;1.73;;;;;;;;;;4995268;28;92868;-62
2022/06/30 01:38:06;;;;;;;2.28;1.90;;;;;;;;;;4995667;28;92507;-61
2022/06/30 01:40:33;;;;;;;2.10;1.48;;;;;;;;;;4998221;28;92933;-62
2022/06/30 01:43:00;;;;;;;1.83;1.70;;;;;;;;;;4992367;28;95036;-61
2022/06/30 01:45:27;;;;;;;1.85;1.75;;;;;;;;;;4994921;28;95612;-61
2022/06/30 01:47:55;;;;;;;2.30;1.90;;;;;;;;;;4994848;28;93598;-62
2022/06/30 01:50:26;;;;;;;1.80;1.70;;;;;;;;;;4995216;28;92485;-62
2022/06/30 01:52:52;;;;;;;1.67;1.58;;;;;;;;;;4992851;28;93265;-61
2022/06/30 01:55:19;;;;;;;1.55;1.45;;;;;;;;;;4994526;28;92987;-62
2022/06/30 01:57:45;;;;;;;1.58;1.48;;;;;;;;;;4995150;28;92433;-61
2022/06/30 02:00:13;;;;;;;2.00;1.70;;;;;;;;;;4995594;28;94268;-64
2022/06/30 02:02:40;;;;;;;2.22;2.03;;;;;;;;;;4997459;28;93323;-62
2022/06/30 02:05:06;;;;;;;2.53;1.90;;;;;;;;;;4994929;28;93379;-61
2022/06/30 02:07:36;;;;;;;1.73;1.63;;;;;;;;;;4992890;28;95612;-62
2022/06/30 02:10:06;;;;;;;1.77;1.67;;;;;;;;;;4994594;28;92464;-62
2022/06/30 02:12:45;;;;;;;1.80;1.70;;;;;;;;;;4994414;28;93088;-61
2022/06/30 02:15:12;;;;;;;2.55;1.90;;;;;;;;;;4994076;28;93789;-62
2022/06/30 02:17:39;;;;;;;1.65;1.48;;;;;;;;;;4994885;28;92461;-61
2022/06/30 02:20:07;;;;;;;2.25;1.73;;;;;;;;;;4994550;28;93147;-61
2022/06/30 02:22:34;;;;;;;2.88;1.70;;;;;;;;;;4994081;28;94627;-62
2022/06/30 02:25:00;;;;;;;1.70;1.60;;;;;;;;;;4998336;28;91614;-61
2022/06/30 02:27:27;;;;;;;1.80;1.70;;;;;;;;;;4994329;28;93297;-61
2022/06/30 02:29:53;;;;;;;1.92;1.77;;;;;;;;;;4994438;28;92548;-61
2022/06/30 02:32:20;;;;;;;1.80;1.70;;;;;;;;;;4993164;28;94847;-61
2022/06/30 02:34:47;;;;;;;3.97;1.73;;;;;;;;;;4994366;28;93482;-62
2022/06/30 02:37:13;;;;;;;3.33;1.85;;;;;;;;;;4994074;28;92443;-62
2022/06/30 02:39:39;;;;;;;1.98;1.83;;;;;;;;;;4993295;28;93113;-62
2022/06/30 02:42:06;;;;;;;1.92;1.83;;;;;;;;;;4994118;28;93244;-62
2022/06/30 02:44:32;;;;;;;1.70;1.60;;;;;;;;;;4997474;28;92568;-62
2022/06/30 02:46:58;;;;;;;1.67;1.58;;;;;;;;;;4993863;28;93547;-61
2022/06/30 02:49:24;;;;;;;1.67;1.58;;;;;;;;;;4994756;28;91730;-62
2022/06/30 02:51:51;;;;;;;1.70;1.60;;;;;;;;;;4994401;28;92443;-61
2022/06/30 02:54:17;;;;;;;2.33;1.92;;;;;;;;;;4994197;28;92407;-61
2022/06/30 02:56:44;;;;;;;2.00;1.88;;;;;;;;;;4992530;28;94956;-62
2022/06/30 02:59:11;;;;;;;2.00;1.90;;;;;;;;;;4994285;28;95383;-62
2022/06/30 03:01:37;;;;;;;2.35;1.90;;;;;;;;;;4994161;28;94662;-62
2022/06/30 03:04:03;;;;;;;2.50;1.83;;;;;;;;;;4993779;28;92916;-62
2022/06/30 03:06:31;;;;;;;2.05;1.85;;;;;;;;;;5000392;28;94150;-62
2022/06/30 03:08:57;;;;;;;1.85;1.75;;;;;;;;;;4997551;28;92359;-62
2022/06/30 03:11:24;;;;;;;1.92;1.70;;;;;;;;;;4998137;28;96141;-62
2022/06/30 03:14:10;;;;;;;2.08;1.98;;;;;;;;;;4997411;28;92306;-62
2022/06/30 03:16:36;;;;;;;1.80;1.70;;;;;;;;;;4997448;28;92451;-62
2022/06/30 03:19:03;;;;;;;1.90;1.80;;;;;;;;;;4997347;28;93868;-61
2022/06/30 03:21:29;;;;;;;1.85;1.75;;;;;;;;;;4995501;28;95837;-62
2022/06/30 03:23:55;;;;;;;2.42;1.88;;;;;;;;;;4997280;28;92496;-61
2022/06/30 03:26:22;;;;;;;1.85;1.75;;;;;;;;;;4997225;28;93131;-62
2022/06/30 03:28:48;;;;;;;1.92;1.83;;;;;;;;;;5000266;28;92777;-61
2022/06/30 03:31:14;;;;;;;2.00;1.90;;;;;;;;;;4996935;28;93143;-61
2022/06/30 03:33:41;;;;;;;1.90;1.70;;;;;;;;;;4996755;28;93938;-61
2022/06/30 03:36:07;;;;;;;3.05;1.98;;;;;;;;;;4997355;28;92352;-62
2022/06/30 03:38:33;;;;;;;2.22;1.90;;;;;;;;;;4997427;28;92944;-61
2022/06/30 03:41:00;;;;;;;1.90;1.80;;;;;;;;;;4996677;28;94461;-62
2022/06/30 03:43:26;;;;;;;1.85;1.75;;;;;;;;;;4997036;28;92352;-61
2022/06/30 03:45:52;;;;;;;2.83;2.03;;;;;;;;;;4995040;28;94738;-62
2022/06/30 03:48:19;;;;;;;1.80;1.70;;;;;;;;;;4996551;28;93381;-62
2022/06/30 03:50:45;;;;;;;1.88;1.77;;;;;;;;;;4999926;28;92477;-61
2022/06/30 03:53:11;;;;;;;3.55;2.20;;;;;;;;;;4996534;28;93740;-61
2022/06/30 03:55:39;;;;;;;2.10;1.90;;;;;;;;;;4996892;28;92432;-61
2022/06/30 03:58:06;;;;;;;3.30;2.00;;;;;;;;;;4996714;28;93198;-61
2022/06/30 04:00:33;;;;;;;1.98;1.88;;;;;;;;;;4996330;28;92928;-62
2022/06/30 04:02:59;;;;;;;2.28;2.03;;;;;;;;;;4997069;28;91654;-61
2022/06/30 04:05:25;;;;;;;1.95;1.85;;;;;;;;;;4996895;28;93454;-61
2022/06/30 04:07:52;;;;;;;2.40;1.95;;;;;;;;;;4996255;28;93281;-62
2022/06/30 04:10:18;;;;;;;1.90;1.80;;;;;;;;;;4994911;28;96224;-62
2022/06/30 04:12:44;;;;;;;2.50;1.83;;;;;;;;;;4999159;28;95567;-62
2022/06/30 04:15:10;;;;;;;2.42;2.20;;;;;;;;;;4995263;28;92466;-62
2022/06/30 04:17:37;;;;;;;1.80;1.70;;;;;;;;;;4995508;28;93522;-63
2022/06/30 04:20:04;;;;;;;2.20;2.10;;;;;;;;;;4995977;28;92629;-61
2022/06/30 04:22:31;;;;;;;2.25;2.05;;;;;;;;;;4996426;28;92416;-61
2022/06/30 04:24:57;;;;;;;2.40;2.00;;;;;;;;;;4996060;28;92941;-61
2022/06/30 04:27:24;;;;;;;2.20;2.00;;;;;;;;;;4996735;28;93048;-61
2022/06/30 04:29:50;;;;;;;1.77;1.67;;;;;;;;;;4996133;28;92444;-62
2022/06/30 04:35:01;;;;;;;2.50;2.30;;;;;;;;;;4994829;28;94900;-61
2022/06/30 04:37:27;;;;;;;2.10;1.90;;;;;;;;;;4996003;28;94924;-62
2022/06/30 04:41:23;;;;;;;1.77;1.67;;;;;;;;;;4996200;28;96677;-62
2022/06/30 04:42:40;;;;;;;2.17;2.08;;;;;;;;;;4996137;28;92328;-61
2022/06/30 04:45:07;;;;;;;1.92;1.83;;;;;;;;;;4995899;28;93224;-62
2022/06/30 04:47:36;;;;;;;2.97;2.20;;;;;;;;;;4995972;28;94534;-61
2022/06/30 04:50:03;;;;;;;3.30;2.33;;;;;;;;;;4995995;28;92475;-61
2022/06/30 04:52:30;;;;;;;2.10;2.00;;;;;;;;;;4996228;28;92979;-62
2022/06/30 04:55:03;;;;;;;2.08;1.90;;;;;;;;;;4998824;28;93770;-61
2022/06/30 04:57:29;;;;;;;1.90;1.80;;;;;;;;;;4995847;28;93519;-61
2022/06/30 04:59:55;;;;;;;2.10;2.00;;;;;;;;;;4993941;28;95964;-61
2022/06/30 05:02:25;;;;;;;;;;;;;;;;;;4996442;28;92409;-62
2022/06/30 05:04:52;;;;;;;2.20;2.00;;;;;;;;;;4996285;28;123485;-62
2022/06/30 05:07:18;;;;;;;2.70;2.15;;;;;;;;;;4995632;28;94734;-61
2022/06/30 05:09:45;;;;;;;2.22;2.13;;;;;;;;;;4995540;28;92436;-61
2022/06/30 05:12:11;;;;;;;2.50;2.30;;;;;;;;;;4995659;28;92305;-61
2022/06/30 05:14:37;;;;;;;2.42;2.10;;;;;;;;;;4994904;28;93409;-61
2022/06/30 05:17:04;;;;;;;1.90;1.80;;;;;;;;;;4999506;28;92019;-62
2022/06/30 05:19:31;;;;;;;3.33;2.17;;;;;;;;;;4993992;28;93651;-61
2022/06/30 05:21:58;;;;;;;2.10;2.00;;;;;;;;;;4995744;28;92501;-62
2022/06/30 05:27:09;;;;;;;2.40;2.15;;;;;;;;;;4995076;28;93511;-61
2022/06/30 05:29:35;;;;;;;2.67;2.30;;;;;;;;;;4995409;28;92413;-61
2022/06/30 05:32:02;;;;;;;3.35;2.40;;;;;;;;;;4994982;28;93434;-61
2022/06/30 05:34:28;;;;;;;2.88;2.45;;;;;;;;;;4994890;28;93455;-61
2022/06/30 05:36:54;;;;;;;3.20;2.50;;;;;;;;;;4995558;28;92443;-62
2022/06/30 05:39:20;;;;;;;2.40;2.30;;;;;;;;;;4996790;28;92896;-62
2022/06/30 05:41:47;;;;;;;2.42;2.20;;;;;;;;;;4995709;28;91633;-62
2022/06/30 05:44:13;;;;;;;2.35;2.25;;;;;;;;;;4995085;28;92864;-62
2022/06/30 05:46:39;;;;;;;2.38;2.22;;;;;;;;;;4994532;28;93432;-61
2022/06/30 05:49:08;;;;;;;2.50;2.25;;;;;;;;;;4993507;28;94857;-62
2022/06/30 05:51:34;;;;;;;2.17;2.03;;;;;;;;;;4995024;28;95573;-61
2022/06/30 05:54:01;;;;;;;2.90;2.63;;;;;;;;;;4994909;28;93253;-62
2022/06/30 05:56:27;;;;;;;2.35;2.25;;;;;;;;;;4994902;28;92387;-61
2022/06/30 05:58:54;;;;;;;2.85;2.53;;;;;;;;;;4995044;28;93998;-61
2022/06/30 06:01:20;;;;;;;2.80;2.60;;;;;;;;;;4998056;28;94611;-61
2022/06/30 06:03:46;;;;;;;2.85;2.55;;;;;;;;;;4994616;28;93462;-62
2022/06/30 06:06:13;;;;;;;2.90;2.67;;;;;;;;;;4995125;28;92439;-61
2022/06/30 06:08:40;;;;;;;2.47;2.38;;;;;;;;;;4994746;28;92514;-61
2022/06/30 06:11:06;;;;;;;2.80;2.60;;;;;;;;;;4994799;28;93423;-61
2022/06/30 06:13:33;;;;;;;3.20;2.90;;;;;;;;;;4992558;28;95821;-62
2022/06/30 06:15:59;;;;;;;4.22;3.17;;;;;;;;;;4993976;28;92437;-62
2022/06/30 06:18:25;;;;;;;3.47;3.20;;;;;;;;;;4994869;28;93148;-62
2022/06/30 06:20:51;;;;;;;3.20;2.97;;;;;;;;;;4994283;28;93765;-61
2022/06/30 06:23:38;;;;;;;3.58;3.20;;;;;;;;;;4997572;28;92496;-61
2022/06/30 06:26:04;;;;;;;3.70;3.40;;;;;;;;;;4993389;28;94405;-62
2022/06/30 06:31:15;;;;;;;3.17;2.97;;;;;;;;;;4995381;28;94045;-62
2022/06/30 06:33:43;;;;;;;3.85;3.50;;;;;;;;;;4994334;28;93184;-61
2022/06/30 06:36:09;;;;;;;3.78;3.47;;;;;;;;;;4994788;28;92448;-61
2022/06/30 06:38:36;;;;;;;3.97;3.63;;;;;;;;;;4992824;28;94781;-62
2022/06/30 06:41:02;;;;;;;4.00;3.70;;;;;;;;;;4997134;28;94906;-61
2022/06/30 06:43:28;;;;;;;5.18;3.78;;;;;;;;;;5000973;28;92391;-61
2022/06/30 06:45:55;;;;;;;4.15;3.83;;;;;;;;;;4997675;28;93472;-61
2022/06/30 06:48:22;;;;;;;4.28;3.88;;;;;;;;;;4997787;28;92460;-61
2022/06/30 06:50:48;;;;;;;4.25;3.80;;;;;;;;;;4998038;28;93180;-61
2022/06/30 06:53:15;;;;;;;5.25;4.13;;;;;;;;;;4997486;28;93501;-61
2022/06/30 06:55:41;;;;;;;6.07;4.40;;;;;;;;;;4998167;28;91932;-61
2022/06/30 06:58:08;;;;;;;4.20;3.78;;;;;;;;;;4997760;28;92719;-61
2022/06/30 07:00:34;;;;;;;4.00;3.63;;;;;;;;;;4997455;28;93533;-62
2022/06/30 07:03:01;;;;;;;3.88;3.47;;;;;;;;;;4996038;28;94826;-61
2022/06/30 07:05:27;;;;;;;3.80;3.40;;;;;;;;;;5000157;28;94668;-62
2022/06/30 07:07:57;;;;;;;3.67;3.38;;;;;;;;;;4996128;28;92419;-62
2022/06/30 07:10:23;;;;;;;4.38;3.53;;;;;;;;;;4997334;28;93008;-61
2022/06/30 07:12:50;;;;;;;3.45;3.17;;;;;;;;;;4997249;28;93361;-62
2022/06/30 07:15:16;;;;;;;4.10;3.63;;;;;;;;;;4980061;28;92467;-61
2022/06/30 07:17:42;;;;;;;4.07;3.67;;;;;;;;;;4997323;28;92310;-61
2022/06/30 07:20:09;;;;;;;3.50;3.20;;;;;;;;;;4997605;28;92771;-61
2022/06/30 07:22:35;;;;;;;3.67;3.30;;;;;;;;;;4997246;28;92447;-62
2022/06/30 07:25:02;;;;;;;3.30;3.00;;;;;;;;;;4997420;28;92955;-61
2022/06/30 07:27:32;;;;;;;3.85;3.53;;;;;;;;;;4998681;28;96080;-61
2022/06/30 07:29:58;;;;;;;4.25;3.55;;;;;;;;;;4996874;28;95544;-61
2022/06/30 07:32:24;;;;;;;5.40;3.17;;;;;;;;;;4997181;28;93669;-61
2022/06/30 07:34:54;;;;;;;3.35;2.80;;;;;;;;;;4996919;28;92501;-62
2022/06/30 07:37:20;;;;;;;3.30;3.10;;;;;;;;;;4997332;28;93111;-61
2022/06/30 07:39:47;;;;;;;3.05;2.80;;;;;;;;;;4996952;28;93575;-62
2022/06/30 07:42:13;;;;;;;2.80;2.60;;;;;;;;;;4996895;28;92463;-61
2022/06/30 07:44:40;;;;;;;5.07;3.03;;;;;;;;;;4997549;28;92913;-62
2022/06/30 07:47:07;;;;;;;3.33;2.78;;;;;;;;;;4996579;28;93665;-61
2022/06/30 07:49:33;;;;;;;3.10;2.80;;;;;;;;;;4999686;28;92421;-61
2022/06/30 07:51:59;;;;;;;3.78;2.90;;;;;;;;;;4993787;28;95684;-61
2022/06/30 07:54:26;;;;;;;3.17;2.85;;;;;;;;;;4997107;28;92563;-61
2022/06/30 07:56:52;;;;;;;2.90;2.60;;;;;;;;;;4996610;28;93081;-61
2022/06/30 07:59:39;;;;;;;3.63;2.90;;;;;;;;;;4996680;28;95141;-61
2022/06/30 08:02:05;;;;;;;3.08;2.55;;;;;;;;;;4996729;28;92625;-61
2022/06/30 08:04:33;;;;;;;3.25;2.95;;;;;;;;;;4996538;28;92874;-62
2022/06/30 08:07:01;;;;;;;4.03;2.80;;;;;;;;;;4996524;28;92488;-62
2022/06/30 08:09:28;;;;;;;4.93;2.50;;;;;;;;;;4997243;28;91659;-61
2022/06/30 08:11:54;;;;;;;3.65;2.65;;;;;;;;;;4999761;28;93427;-62
2022/06/30 08:14:21;;;;;;;3.13;2.50;;;;;;;;;;4995969;28;92855;-62
2022/06/30 08:16:49;;;;;;;2.60;2.40;;;;;;;;;;4995202;28;94894;-61
2022/06/30 08:19:16;;;;;;;3.47;2.40;;;;;;;;;;4996612;28;94402;-61
2022/06/30 08:21:43;;;;;;;3.00;2.78;;;;;;;;;;4996293;28;92398;-61
2022/06/30 08:24:09;;;;;;;2.80;2.58;;;;;;;;;;4996538;28;93149;-61
2022/06/30 08:26:35;;;;;;;2.80;2.60;;;;;;;;;;4996217;28;93319;-62
2022/06/30 08:29:02;;;;;;;2.97;2.40;;;;;;;;;;4996132;28;92519;-61
2022/06/30 08:31:29;;;;;;;2.50;2.30;;;;;;;;;;4996069;28;92937;-61
2022/06/30 08:33:55;;;;;;;2.65;2.35;;;;;;;;;;4999818;28;93071;-61
2022/06/30 08:36:22;;;;;;;2.53;2.33;;;;;;;;;;4996229;28;92449;-61
2022/06/30 08:38:48;;;;;;;2.25;2.10;;;;;;;;;;4996179;28;94424;-61
2022/06/30 08:44:00;;;;;;;2.40;2.30;;;;;;;;;;4995985;28;95648;-61
2022/06/30 08:46:27;;;;;;;3.58;2.70;;;;;;;;;;4995730;28;93493;-61
2022/06/30 08:48:54;;;;;;;2.30;2.20;;;;;;;;;;4995829;28;92364;-62
2022/06/30 08:51:20;;;;;;;2.72;2.13;;;;;;;;;;4995874;28;93711;-61
2022/06/30 08:53:50;;;;;;;2.88;2.67;;;;;;;;;;4999165;28;94706;-62
2022/06/30 08:56:17;;;;;;;2.33;2.17;;;;;;;;;;4995651;28;93356;-62
2022/06/30 08:58:44;;;;;;;2.40;2.20;;;;;;;;;;4996006;28;92742;-62
2022/06/30 09:01:11;;;;;;;2.50;2.25;;;;;;;;;;4995882;28;92731;-61
2022/06/30 09:03:38;;;;;;;4.00;2.33;;;;;;;;;;4995174;28;93112;-61
2022/06/30 09:06:05;;;;;;;2.13;1.90;;;;;;;;;;4994266;28;94845;-61
2022/06/30 09:08:32;;;;;;;3.05;2.30;;;;;;;;;;4995892;28;92408;-62
2022/06/30 09:10:58;;;;;;;2.50;2.15;;;;;;;;;;4995502;28;92957;-61
2022/06/30 09:13:25;;;;;;;2.47;2.30;;;;;;;;;;4995324;28;93372;-61
2022/06/30 09:15:51;;;;;;;2.15;2.03;;;;;;;;;;4998142;28;92572;-62
2022/06/30 09:18:21;;;;;;;2.33;2.10;;;;;;;;;;4995489;28;94781;-61
2022/06/30 09:20:48;;;;;;;1.98;1.80;;;;;;;;;;4995383;28;92371;-62
2022/06/30 09:23:18;;;;;;;3.75;2.22;;;;;;;;;;4995722;28;92933;-62
2022/06/30 09:25:46;;;;;;;2.05;1.85;;;;;;;;;;4994394;28;94429;-61
2022/06/30 09:28:12;;;;;;;2.53;2.03;;;;;;;;;;4995364;28;92412;-61
2022/06/30 09:30:38;;;;;;;2.10;1.90;;;;;;;;;;4994280;28;94752;-62
2022/06/30 09:33:05;;;;;;;2.03;1.92;;;;;;;;;;4995261;28;93447;-61
2022/06/30 09:35:32;;;;;;;2.17;1.98;;;;;;;;;;4995322;28;92510;-61
2022/06/30 09:38:02;;;;;;;1.95;1.80;;;;;;;;;;4997718;28;92816;-61
2022/06/30 09:40:30;;;;;;;1.70;1.60;;;;;;;;;;4995395;28;92431;-62
2022/06/30 09:42:57;;;;;;;2.40;2.20;;;;;;;;;;4995379;28;93833;-62
2022/06/30 09:45:52;;;;;;;2.13;1.80;;;;;;;;;;4994692;28;93534;-62
2022/06/30 09:48:19;;;;;;;4.05;1.77;;;;;;;;;;4985781;28;91730;-61
2022/06/30 09:50:55;;;;;;;2.05;1.95;;;;;;;;;;4995453;28;93546;-62
2022/06/30 09:53:21;;;;;;;1.98;1.70;;;;;;;;;;4994806;28;92420;-61
2022/06/30 09:55:48;;;;;;;2.00;1.80;;;;;;;;;;4993249;28;94939;-62
2022/06/30 09:58:30;;;;;;;2.33;1.67;;;;;;;;;;4994923;28;95923;-61
2022/06/30 10:00:58;;;;;;;1.92;1.73;;;;;;;;;;4997609;28;93949;-62
2022/06/30 10:03:30;;;;;;;2.10;1.80;;;;;;;;;;4994787;28;93180;-62
2022/06/30 10:06:06;;;;;;;3.20;2.00;;;;;;;;;;4994645;28;93478;-62
2022/06/30 10:08:33;;;;;;;2.78;1.83;;;;;;;;;;4994709;28;93034;-62
2022/06/30 10:10:59;;;;;;;2.28;1.70;;;;;;;;;;4995266;28;94245;-61
2022/06/30 10:13:26;;;;;;;1.85;1.70;;;;;;;;;;4994611;28;91640;-61
2022/06/30 10:15:54;;;;;;;2.25;1.60;;;;;;;;;;4993566;28;92631;-62
2022/06/30 10:18:23;;;;;;;1.67;1.58;;;;;;;;;;4993589;28;92444;-62
2022/06/30 10:20:50;;;;;;;1.70;1.60;;;;;;;;;;4993104;28;95816;-62
2022/06/30 10:23:19;;;;;;;1.88;1.70;;;;;;;;;;4997681;28;92419;-61
2022/06/30 10:25:47;;;;;;;2.38;1.88;;;;;;;;;;4994292;28;93612;-62
2022/06/30 10:28:15;;;;;;;1.77;1.67;;;;;;;;;;4994734;28;92798;-61
2022/06/30 10:31:01;;;;;;;3.08;1.88;;;;;;;;;;4994995;28;93108;-62
2022/06/30 10:33:48;;;;;;;1.90;1.80;;;;;;;;;;4993912;28;93327;-61
2022/06/30 10:36:21;;;;;;;2.05;1.85;;;;;;;;;;4994685;28;92467;-62
2022/06/30 10:38:54;;;;;;;2.00;1.90;;;;;;;;;;4994913;28;93151;-61
2022/06/30 10:41:22;;;;;;;2.17;1.85;;;;;;;;;;4993340;28;93500;-61
2022/06/30 10:44:04;;;;;;;2.05;1.60;;;;;;;;;;4993391;28;92492;-62
2022/06/30 10:46:35;;;;;;;3.05;1.90;;;;;;;;;;4995859;28;95402;-61
2022/06/30 10:49:09;;;;;;;1.85;1.75;;;;;;;;;;4993389;28;92423;-61
2022/06/30 10:51:35;;;;;;;1.38;1.27;;;;;;;;;;4994469;28;92953;-62
2022/06/30 10:54:02;;;;;;;2.20;1.63;;;;;;;;;;4994116;28;93562;-61
2022/06/30 10:56:46;;;;;;;1.70;1.60;;;;;;;;;;4994222;28;92468;-62
2022/06/30 10:59:13;;;;;;;1.45;1.35;;;;;;;;;;4993821;28;93205;-61
2022/06/30 11:01:59;;;;;;;1.98;1.80;;;;;;;;;;4994091;28;93613;-62
2022/06/30 11:04:25;;;;;;;1.70;1.60;;;;;;;;;;4994195;28;91750;-61
2022/06/30 11:06:57;;;;;;;2.08;1.60;;;;;;;;;;4996082;28;92627;-61
2022/06/30 11:09:41;;;;;;;1.60;1.50;;;;;;;;;;4994073;28;92570;-62
2022/06/30 11:12:08;;;;;;;1.75;1.60;;;;;;;;;;4992552;28;94703;-62
2022/06/30 11:14:34;;;;;;;2.03;1.42;;;;;;;;;;4993387;28;93777;-62
2022/06/30 11:17:12;;;;;;;1.63;1.40;;;;;;;;;;4994299;28;92436;-62
2022/06/30 11:19:38;;;;;;;1.60;1.50;;;;;;;;;;4993958;28;93274;-61
2022/06/30 11:22:05;;;;;;;1.33;1.23;;;;;;;;;;4993732;28;93341;-62
2022/06/30 11:24:33;;;;;;;1.50;1.40;;;;;;;;;;4993977;28;92537;-62
2022/06/30 11:27:17;;;;;;;1.90;1.48;;;;;;;;;;4996568;28;93288;-61
2022/06/30 11:29:44;;;;;;;2.13;1.80;;;;;;;;;;5000805;28;92898;-61
2022/06/30 11:32:21;;;;;;;1.55;1.45;;;;;;;;;;4996383;28;93530;-62
2022/06/30 11:34:47;;;;;;;2.10;1.50;;;;;;;;;;4997045;28;93664;-61
2022/06/30 11:37:19;;;;;;;1.10;1.10;;;;;;;;;;4995447;28;95324;-61
2022/06/30 11:39:45;;;;;;;1.55;1.45;;;;;;;;;;4997030;28;95660;-62
2022/06/30 11:42:12;;;;;;;2.22;1.45;;;;;;;;;;4996866;28;93340;-61
2022/06/30 11:44:40;;;;;;;1.73;1.63;;;;;;;;;;4996878;28;92421;-61
2022/06/30 11:47:07;;;;;;;1.40;1.30;;;;;;;;;;4997007;28;94109;-61
2022/06/30 11:49:40;;;;;;;1.55;1.35;;;;;;;;;;4996429;28;93410;-62
2022/06/30 11:52:16;;;;;;;1.45;1.35;;;;;;;;;;5000538;28;92529;-61
2022/06/30 11:54:46;;;;;;;1.70;1.60;;;;;;;;;;4997044;28;91576;-62
2022/06/30 11:57:12;;;;;;;1.70;1.60;;;;;;;;;;4997084;28;92556;-61
2022/06/30 11:59:48;;;;;;;1.50;1.38;;;;;;;;;;4996216;28;92756;-61
2022/06/30 12:02:14;;;;;;;1.83;1.63;;;;;;;;;;4995024;28;95652;-61
2022/06/30 12:04:41;;;;;;;1.88;1.45;;;;;;;;;;4996238;28;92498;-61
2022/06/30 12:07:12;;;;;;;1.52;1.20;;;;;;;;;;4996489;28;93385;-61
2022/06/30 12:09:38;;;;;;;1.55;1.33;;;;;;;;;;4996825;28;94219;-61
2022/06/30 12:12:05;;;;;;;1.50;1.40;;;;;;;;;;4995243;28;92433;-62
2022/06/30 12:14:34;;;;;;;2.85;1.63;;;;;;;;;;4985355;28;93425;-62
2022/06/30 12:17:00;;;;;;;2.50;1.60;;;;;;;;;;5009063;28;92513;-61
2022/06/30 12:19:26;;;;;;;1.55;1.45;;;;;;;;;;4997175;28;94177;-62
2022/06/30 12:21:53;;;;;;;2.50;1.73;;;;;;;;;;4996244;28;94240;-61
2022/06/30 12:24:21;;;;;;;1.10;1.10;;;;;;;;;;4996591;28;92443;-62
2022/06/30 12:26:49;;;;;;;1.55;1.33;;;;;;;;;;4995414;28;94854;-61
2022/06/30 12:29:16;;;;;;;1.73;1.40;;;;;;;;;;4994643;28;93427;-62
2022/06/30 12:31:42;;;;;;;1.25;1.20;;;;;;;;;;4995346;28;92427;-61
2022/06/30 12:34:13;;;;;;;1.15;1.13;;;;;;;;;;4995398;28;95633;-62
2022/06/30 12:36:46;;;;;;;1.23;1.13;;;;;;;;;;4999395;28;94633;-62
2022/06/30 12:39:14;;;;;;;1.10;1.10;;;;;;;;;;4995550;28;94689;-62
2022/06/30 12:41:41;;;;;;;1.23;1.13;;;;;;;;;;4996275;28;94305;-61
2022/06/30 12:44:08;;;;;;;1.52;1.20;;;;;;;;;;4996318;28;91676;-62
2022/06/30 12:46:39;;;;;;;1.70;1.30;;;;;;;;;;4996233;28;93239;-61
2022/06/30 12:49:05;;;;;;;2.42;1.50;;;;;;;;;;4994699;28;93462;-61
2022/06/30 12:51:32;;;;;;;2.20;1.17;;;;;;;;;;4993152;28;95110;-62
2022/06/30 12:53:59;;;;;;;1.00;1.00;;;;;;;;;;4995981;28;96738;-61
2022/06/30 12:56:26;;;;;;;1.15;1.10;;;;;;;;;;4995928;28;93290;-61
2022/06/30 12:58:53;;;;;;;2.60;1.08;;;;;;;;;;4998809;28;92378;-61
2022/06/30 13:01:22;;;;;;;1.88;1.42;;;;;;;;;;4995909;28;93541;-62
2022/06/30 13:03:54;;;;;;;1.77;1.30;;;;;;;;;;4995768;28;92399;-62
2022/06/30 13:06:22;;;;;;;1.80;1.20;;;;;;;;;;4995774;28;93307;-62
2022/06/30 13:08:48;;;;;;;1.25;1.10;;;;;;;;;;4994690;28;92561;-62
2022/06/30 13:11:16;;;;;;;2.17;1.15;;;;;;;;;;4996074;28;92708;-61
2022/06/30 13:13:43;;;;;;;1.15;1.10;;;;;;;;;;4995453;28;93128;-61
2022/06/30 13:16:09;;;;;;;2.25;1.17;;;;;;;;;;4993518;28;96329;-61
2022/06/30 13:18:36;;;;;;;1.63;1.10;;;;;;;;;;4998785;28;92504;-62
2022/06/30 13:21:02;;;;;;;1.17;1.02;;;;;;;;;;4995311;28;93663;-61
2022/06/30 13:23:28;;;;;;;3.15;1.45;;;;;;;;;;4995493;28;92676;-62
2022/06/30 13:25:55;;;;;;;1.38;1.23;;;;;;;;;;4995826;28;94162;-61
2022/06/30 13:28:21;;;;;;;1.63;1.15;;;;;;;;;;4995254;28;93487;-61
2022/06/30 13:30:47;;;;;;;2.60;0.98;;;;;;;;;;4995400;28;92473;-62
2022/06/30 13:33:14;;;;;;;1.73;1.20;;;;;;;;;;4995827;28;94173;-61
2022/06/30 13:35:40;;;;;;;1.08;0.98;;;;;;;;;;4995440;28;94299;-61
2022/06/30 13:38:06;;;;;;;1.00;1.00;;;;;;;;;;4995613;28;92372;-61
2022/06/30 13:40:36;;;;;;;1.40;1.13;;;;;;;;;;4996496;28;94784;-61
2022/06/30 13:43:03;;;;;;;1.42;1.20;;;;;;;;;;4995383;28;92414;-61
2022/06/30 13:45:29;;;;;;;1.08;1.08;;;;;;;;;;4995360;28;93996;-62
2022/06/30 13:47:56;;;;;;;0.90;0.90;;;;;;;;;;4995031;28;94581;-61
2022/06/30 13:50:22;;;;;;;1.30;1.20;;;;;;;;;;4994784;28;92335;-62
2022/06/30 13:52:48;;;;;;;1.65;1.20;;;;;;;;;;4995220;28;94065;-62
2022/06/30 13:55:15;;;;;;;1.77;1.10;;;;;;;;;;4994760;28;93414;-61
2022/06/30 13:57:41;;;;;;;1.83;1.17;;;;;;;;;;4995695;28;91780;-61
2022/06/30 14:00:10;;;;;;;1.02;0.90;;;;;;;;;;4995404;28;93368;-62
2022/06/30 14:02:36;;;;;;;1.10;1.00;;;;;;;;;;4997599;28;93303;-61
2022/06/30 14:05:03;;;;;;;1.30;1.20;;;;;;;;;;4993430;28;94760;-62
2022/06/30 14:07:29;;;;;;;2.08;1.02;;;;;;;;;;4994820;28;94061;-61
2022/06/30 14:09:56;;;;;;;1.20;1.10;;;;;;;;;;4994703;28;92724;-61
2022/06/30 14:12:22;;;;;;;1.17;1.10;;;;;;;;;;4995133;28;94299;-61
2022/06/30 14:14:49;;;;;;;1.48;1.05;;;;;;;;;;4993861;28;93217;-63
2022/06/30 14:17:15;;;;;;;1.02;0.80;;;;;;;;;;4994963;28;92450;-62
2022/06/30 14:19:41;;;;;;;1.02;0.95;;;;;;;;;;4994525;28;92885;-62
2022/06/30 14:22:10;;;;;;;1.25;0.90;;;;;;;;;;4995300;28;92633;-62
2022/06/30 14:24:36;;;;;;;3.15;1.10;;;;;;;;;;4997798;28;92511;-61
2022/06/30 14:27:02;;;;;;;2.95;1.00;;;;;;;;;;4994515;28;93484;-62
2022/06/30 14:29:29;;;;;;;1.08;1.08;;;;;;;;;;4992458;28;94771;-62
2022/06/30 14:31:55;;;;;;;1.70;1.20;;;;;;;;;;4994495;28;95411;-62
2022/06/30 14:34:22;;;;;;;1.30;1.05;;;;;;;;;;4994461;28;93755;-61
2022/06/30 14:36:49;;;;;;;1.13;1.02;;;;;;;;;;4994492;28;92378;-61
2022/06/30 14:39:16;;;;;;;1.20;1.05;;;;;;;;;;4994641;28;93144;-61
2022/06/30 14:44:27;;;;;;;1.20;1.08;;;;;;;;;;4994242;28;92513;-62
2022/06/30 14:46:53;;;;;;;0.82;0.70;;;;;;;;;;4997826;28;94205;-61
2022/06/30 14:49:20;;;;;;;1.67;0.90;;;;;;;;;;4994427;28;92933;-61
2022/06/30 14:51:57;;;;;;;1.08;0.98;;;;;;;;;;4994561;28;94388;-61
2022/06/30 14:54:24;;;;;;;1.27;1.13;;;;;;;;;;4992329;28;95915;-63
2022/06/30 14:56:50;;;;;;;1.92;1.00;;;;;;;;;;4994463;28;92536;-61
2022/06/30 14:59:16;;;;;;;1.50;0.90;;;;;;;;;;4994308;28;92967;-61
2022/06/30 15:01:43;;;;;;;1.25;1.15;;;;;;;;;;4996066;28;93292;-62
2022/06/30 15:04:09;;;;;;;1.13;1.00;;;;;;;;;;4997874;28;92425;-61